sensor_id;sensor_type;location;lat;lon;timestamp;temperature;humidity
54832;DHT22;40730;53.068;6.572;2024-03-02T00:01:15;7.40;99.90
54832;DHT22;40730;53.068;6.572;2024-03-02T00:03:42;7.40;99.90
54832;DHT22;40730;53.068;6.572;2024-03-02T00:06:09;7.40;99.90
54832;DHT22;40730;53.068;6.572;2024-03-02T00:08:35;7.40;99.90
54832;DHT22;40730;53.068;6.572;2024-03-02T00:11:01;7.40;99.90
54832;DHT22;40730;53.068;6.572;2024-03-02T00:13:29;7.30;99.90
54832;DHT22;40730;53.068;6.572;2024-03-02T00:15:56;7.30;99.90
54832;DHT22;40730;53.068;6.572;2024-03-02T00:18:32;7.40;99.90
54832;DHT22;40730;53.068;6.572;2024-03-02T00:20:59;7.30;99.90
54832;DHT22;40730;53.068;6.572;2024-03-02T00:23:33;7.30;99.90
54832;DHT22;40730;53.068;6.572;2024-03-02T00:25:59;7.30;99.90
54832;DHT22;40730;53.068;6.572;2024-03-02T00:28:33;7.30;99.90
54832;DHT22;40730;53.068;6.572;2024-03-02T00:33:36;7.30;99.90
54832;DHT22;40730;53.068;6.572;2024-03-02T00:36:03;7.30;99.90
54832;DHT22;40730;53.068;6.572;2024-03-02T00:38:30;7.30;99.90
54832;DHT22;40730;53.068;6.572;2024-03-02T00:40:58;7.30;99.90
54832;DHT22;40730;53.068;6.572;2024-03-02T00:46:12;7.50;99.90
54832;DHT22;40730;53.068;6.572;2024-03-02T00:48:41;7.40;99.90
54832;DHT22;40730;53.068;6.572;2024-03-02T00:51:10;7.40;99.90
54832;DHT22;40730;53.068;6.572;2024-03-02T00:53:35;7.40;99.90
54832;DHT22;40730;53.068;6.572;2024-03-02T00:56:02;7.40;99.90
54832;DHT22;40730;53.068;6.572;2024-03-02T00:58:28;7.40;99.90
54832;DHT22;40730;53.068;6.572;2024-03-02T01:00:53;7.40;99.90
54832;DHT22;40730;53.068;6.572;2024-03-02T01:03:19;7.50;99.90
54832;DHT22;40730;53.068;6.572;2024-03-02T01:05:45;7.50;99.90
54832;DHT22;40730;53.068;6.572;2024-03-02T01:08:11;7.50;99.90
54832;DHT22;40730;53.068;6.572;2024-03-02T01:10:36;7.50;99.90
54832;DHT22;40730;53.068;6.572;2024-03-02T01:13:02;7.50;99.90
54832;DHT22;40730;53.068;6.572;2024-03-02T01:15:28;7.50;99.90
54832;DHT22;40730;53.068;6.572;2024-03-02T01:17:53;7.50;99.90
54832;DHT22;40730;53.068;6.572;2024-03-02T01:20:19;7.60;99.90
54832;DHT22;40730;53.068;6.572;2024-03-02T01:22:45;7.60;99.90
54832;DHT22;40730;53.068;6.572;2024-03-02T01:25:11;7.70;99.90
54832;DHT22;40730;53.068;6.572;2024-03-02T01:27:37;7.70;99.90
54832;DHT22;40730;53.068;6.572;2024-03-02T01:30:02;7.70;99.90
54832;DHT22;40730;53.068;6.572;2024-03-02T01:32:28;7.70;99.90
54832;DHT22;40730;53.068;6.572;2024-03-02T01:34:53;7.70;99.90
54832;DHT22;40730;53.068;6.572;2024-03-02T01:37:19;7.70;99.90
54832;DHT22;40730;53.068;6.572;2024-03-02T01:39:45;7.80;99.90
54832;DHT22;40730;53.068;6.572;2024-03-02T01:42:10;7.80;99.90
54832;DHT22;40730;53.068;6.572;2024-03-02T01:44:36;7.80;99.90
54832;DHT22;40730;53.068;6.572;2024-03-02T01:47:02;7.80;99.90
54832;DHT22;40730;53.068;6.572;2024-03-02T01:49:27;7.80;99.90
54832;DHT22;40730;53.068;6.572;2024-03-02T01:51:53;7.80;99.90
54832;DHT22;40730;53.068;6.572;2024-03-02T01:54:18;7.80;99.90
54832;DHT22;40730;53.068;6.572;2024-03-02T01:56:44;7.80;99.90
54832;DHT22;40730;53.068;6.572;2024-03-02T01:59:11;7.80;99.90
54832;DHT22;40730;53.068;6.572;2024-03-02T02:01:38;7.90;99.90
54832;DHT22;40730;53.068;6.572;2024-03-02T02:04:04;7.80;99.90
54832;DHT22;40730;53.068;6.572;2024-03-02T02:06:32;7.80;99.90
54832;DHT22;40730;53.068;6.572;2024-03-02T02:08:57;7.80;99.90
54832;DHT22;40730;53.068;6.572;2024-03-02T02:11:23;7.80;99.90
54832;DHT22;40730;53.068;6.572;2024-03-02T02:13:49;7.90;99.90
54832;DHT22;40730;53.068;6.572;2024-03-02T02:16:15;7.80;99.90
54832;DHT22;40730;53.068;6.572;2024-03-02T02:18:40;7.80;99.90
54832;DHT22;40730;53.068;6.572;2024-03-02T02:21:06;7.80;99.90
54832;DHT22;40730;53.068;6.572;2024-03-02T02:23:31;7.80;99.90
54832;DHT22;40730;53.068;6.572;2024-03-02T02:25:57;7.80;99.90
54832;DHT22;40730;53.068;6.572;2024-03-02T02:28:23;7.80;99.90
54832;DHT22;40730;53.068;6.572;2024-03-02T02:30:48;7.80;99.90
54832;DHT22;40730;53.068;6.572;2024-03-02T02:33:14;7.80;99.90
54832;DHT22;40730;53.068;6.572;2024-03-02T02:35:39;7.70;99.90
54832;DHT22;40730;53.068;6.572;2024-03-02T02:38:05;7.70;99.90
54832;DHT22;40730;53.068;6.572;2024-03-02T02:40:31;7.70;99.90
54832;DHT22;40730;53.068;6.572;2024-03-02T02:42:57;7.70;99.90
54832;DHT22;40730;53.068;6.572;2024-03-02T02:45:24;7.70;99.90
54832;DHT22;40730;53.068;6.572;2024-03-02T02:47:50;7.70;99.90
54832;DHT22;40730;53.068;6.572;2024-03-02T02:50:16;7.80;99.90
54832;DHT22;40730;53.068;6.572;2024-03-02T02:52:42;7.70;99.90
54832;DHT22;40730;53.068;6.572;2024-03-02T02:55:09;7.70;99.90
54832;DHT22;40730;53.068;6.572;2024-03-02T02:57:36;7.80;99.90
54832;DHT22;40730;53.068;6.572;2024-03-02T03:00:07;7.70;99.90
54832;DHT22;40730;53.068;6.572;2024-03-02T03:02:39;7.80;99.90
54832;DHT22;40730;53.068;6.572;2024-03-02T03:05:09;7.80;99.90
54832;DHT22;40730;53.068;6.572;2024-03-02T03:07:35;7.80;99.90
54832;DHT22;40730;53.068;6.572;2024-03-02T03:10:03;7.80;99.90
54832;DHT22;40730;53.068;6.572;2024-03-02T03:12:32;7.80;99.90
54832;DHT22;40730;53.068;6.572;2024-03-02T03:14:58;7.80;99.90
54832;DHT22;40730;53.068;6.572;2024-03-02T03:17:25;7.80;99.90
54832;DHT22;40730;53.068;6.572;2024-03-02T03:19:51;7.90;99.90
54832;DHT22;40730;53.068;6.572;2024-03-02T03:22:17;7.90;99.90
54832;DHT22;40730;53.068;6.572;2024-03-02T03:24:42;8.00;99.90
54832;DHT22;40730;53.068;6.572;2024-03-02T03:27:09;8.00;99.90
54832;DHT22;40730;53.068;6.572;2024-03-02T03:29:36;8.00;99.90
54832;DHT22;40730;53.068;6.572;2024-03-02T03:32:02;8.00;99.90
54832;DHT22;40730;53.068;6.572;2024-03-02T03:34:27;8.00;99.90
54832;DHT22;40730;53.068;6.572;2024-03-02T03:36:54;8.00;99.90
54832;DHT22;40730;53.068;6.572;2024-03-02T03:39:20;8.00;99.90
54832;DHT22;40730;53.068;6.572;2024-03-02T03:41:45;8.00;99.90
54832;DHT22;40730;53.068;6.572;2024-03-02T03:44:11;8.00;99.90
54832;DHT22;40730;53.068;6.572;2024-03-02T03:46:37;8.00;99.90
54832;DHT22;40730;53.068;6.572;2024-03-02T03:49:02;8.10;99.90
54832;DHT22;40730;53.068;6.572;2024-03-02T03:51:29;8.00;99.90
54832;DHT22;40730;53.068;6.572;2024-03-02T03:53:55;8.10;99.90
54832;DHT22;40730;53.068;6.572;2024-03-02T03:56:21;7.90;99.90
54832;DHT22;40730;53.068;6.572;2024-03-02T03:58:47;7.90;99.90
54832;DHT22;40730;53.068;6.572;2024-03-02T04:01:12;7.90;99.90
54832;DHT22;40730;53.068;6.572;2024-03-02T04:03:38;7.90;99.90
54832;DHT22;40730;53.068;6.572;2024-03-02T04:06:04;7.90;99.90
54832;DHT22;40730;53.068;6.572;2024-03-02T04:08:29;7.90;99.90
54832;DHT22;40730;53.068;6.572;2024-03-02T04:10:55;7.90;99.90
54832;DHT22;40730;53.068;6.572;2024-03-02T04:13:21;7.80;99.90
54832;DHT22;40730;53.068;6.572;2024-03-02T04:15:47;7.80;99.90
54832;DHT22;40730;53.068;6.572;2024-03-02T04:18:12;7.80;99.90
54832;DHT22;40730;53.068;6.572;2024-03-02T04:20:38;7.90;99.90
54832;DHT22;40730;53.068;6.572;2024-03-02T04:23:04;7.90;99.90
54832;DHT22;40730;53.068;6.572;2024-03-02T04:25:29;7.90;99.90
54832;DHT22;40730;53.068;6.572;2024-03-02T04:27:55;7.90;99.90
54832;DHT22;40730;53.068;6.572;2024-03-02T04:30:21;7.90;99.90
54832;DHT22;40730;53.068;6.572;2024-03-02T04:32:46;7.90;99.90
54832;DHT22;40730;53.068;6.572;2024-03-02T04:35:13;7.80;99.90
54832;DHT22;40730;53.068;6.572;2024-03-02T04:37:38;7.80;99.90
54832;DHT22;40730;53.068;6.572;2024-03-02T04:40:05;7.80;99.90
54832;DHT22;40730;53.068;6.572;2024-03-02T04:42:34;7.80;99.90
54832;DHT22;40730;53.068;6.572;2024-03-02T04:45:00;7.80;99.90
54832;DHT22;40730;53.068;6.572;2024-03-02T04:47:25;7.80;99.90
54832;DHT22;40730;53.068;6.572;2024-03-02T04:49:51;7.80;99.90
54832;DHT22;40730;53.068;6.572;2024-03-02T04:52:17;7.80;99.90
54832;DHT22;40730;53.068;6.572;2024-03-02T04:54:43;7.80;99.90
54832;DHT22;40730;53.068;6.572;2024-03-02T04:57:27;7.80;99.90
54832;DHT22;40730;53.068;6.572;2024-03-02T04:59:53;7.70;99.90
54832;DHT22;40730;53.068;6.572;2024-03-02T05:02:18;7.60;99.90
54832;DHT22;40730;53.068;6.572;2024-03-02T05:04:44;7.60;99.90
54832;DHT22;40730;53.068;6.572;2024-03-02T05:07:10;7.60;99.90
54832;DHT22;40730;53.068;6.572;2024-03-02T05:09:35;7.60;99.90
54832;DHT22;40730;53.068;6.572;2024-03-02T05:12:01;7.60;99.90
54832;DHT22;40730;53.068;6.572;2024-03-02T05:14:46;7.60;99.90
54832;DHT22;40730;53.068;6.572;2024-03-02T05:17:11;7.60;99.90
54832;DHT22;40730;53.068;6.572;2024-03-02T05:19:37;7.60;99.90
54832;DHT22;40730;53.068;6.572;2024-03-02T05:22:03;7.50;99.90
54832;DHT22;40730;53.068;6.572;2024-03-02T05:24:29;7.50;99.90
54832;DHT22;40730;53.068;6.572;2024-03-02T05:26:55;7.50;99.90
54832;DHT22;40730;53.068;6.572;2024-03-02T05:29:21;7.40;99.90
54832;DHT22;40730;53.068;6.572;2024-03-02T05:31:47;7.40;99.90
54832;DHT22;40730;53.068;6.572;2024-03-02T05:34:12;7.30;99.90
54832;DHT22;40730;53.068;6.572;2024-03-02T05:36:38;7.30;99.90
54832;DHT22;40730;53.068;6.572;2024-03-02T05:39:05;7.30;99.90
54832;DHT22;40730;53.068;6.572;2024-03-02T05:41:34;7.30;99.90
54832;DHT22;40730;53.068;6.572;2024-03-02T05:44:00;7.30;99.90
54832;DHT22;40730;53.068;6.572;2024-03-02T05:46:26;7.30;99.90
54832;DHT22;40730;53.068;6.572;2024-03-02T05:48:52;7.10;99.90
54832;DHT22;40730;53.068;6.572;2024-03-02T05:51:17;7.30;99.90
54832;DHT22;40730;53.068;6.572;2024-03-02T05:53:43;7.40;99.90
54832;DHT22;40730;53.068;6.572;2024-03-02T05:56:09;7.50;99.90
54832;DHT22;40730;53.068;6.572;2024-03-02T05:58:34;7.50;99.90
54832;DHT22;40730;53.068;6.572;2024-03-02T06:01:19;7.50;99.90
54832;DHT22;40730;53.068;6.572;2024-03-02T06:03:45;7.60;99.90
54832;DHT22;40730;53.068;6.572;2024-03-02T06:06:10;7.60;99.90
54832;DHT22;40730;53.068;6.572;2024-03-02T06:08:36;7.60;99.90
54832;DHT22;40730;53.068;6.572;2024-03-02T06:11:02;7.60;99.90
54832;DHT22;40730;53.068;6.572;2024-03-02T06:13:27;7.60;99.90
54832;DHT22;40730;53.068;6.572;2024-03-02T06:15:53;7.60;99.90
54832;DHT22;40730;53.068;6.572;2024-03-02T06:18:18;7.60;99.90
54832;DHT22;40730;53.068;6.572;2024-03-02T06:20:47;7.60;99.90
54832;DHT22;40730;53.068;6.572;2024-03-02T06:23:12;7.60;99.90
54832;DHT22;40730;53.068;6.572;2024-03-02T06:25:38;7.60;99.90
54832;DHT22;40730;53.068;6.572;2024-03-02T06:28:04;7.50;99.90
54832;DHT22;40730;53.068;6.572;2024-03-02T06:30:29;7.50;99.90
54832;DHT22;40730;53.068;6.572;2024-03-02T06:32:55;7.40;99.90
54832;DHT22;40730;53.068;6.572;2024-03-02T06:35:20;7.30;99.90
54832;DHT22;40730;53.068;6.572;2024-03-02T06:37:46;7.30;99.90
54832;DHT22;40730;53.068;6.572;2024-03-02T06:40:12;7.20;99.90
54832;DHT22;40730;53.068;6.572;2024-03-02T06:42:37;7.20;99.90
54832;DHT22;40730;53.068;6.572;2024-03-02T06:45:03;7.10;99.90
54832;DHT22;40730;53.068;6.572;2024-03-02T06:47:29;7.10;99.90
54832;DHT22;40730;53.068;6.572;2024-03-02T06:49:55;7.00;99.90
54832;DHT22;40730;53.068;6.572;2024-03-02T06:52:22;7.00;99.90
54832;DHT22;40730;53.068;6.572;2024-03-02T06:54:48;6.70;99.90
54832;DHT22;40730;53.068;6.572;2024-03-02T06:57:13;7.00;99.90
54832;DHT22;40730;53.068;6.572;2024-03-02T06:59:39;6.90;99.90
54832;DHT22;40730;53.068;6.572;2024-03-02T07:02:04;6.90;99.90
54832;DHT22;40730;53.068;6.572;2024-03-02T07:04:30;6.80;99.90
54832;DHT22;40730;53.068;6.572;2024-03-02T07:06:56;6.80;99.90
54832;DHT22;40730;53.068;6.572;2024-03-02T07:09:21;6.80;99.90
54832;DHT22;40730;53.068;6.572;2024-03-02T07:11:50;6.80;99.90
54832;DHT22;40730;53.068;6.572;2024-03-02T07:14:15;6.80;99.90
54832;DHT22;40730;53.068;6.572;2024-03-02T07:16:41;6.90;99.90
54832;DHT22;40730;53.068;6.572;2024-03-02T07:19:08;6.90;99.90
54832;DHT22;40730;53.068;6.572;2024-03-02T07:21:34;7.00;99.90
54832;DHT22;40730;53.068;6.572;2024-03-02T07:24:00;7.00;99.90
54832;DHT22;40730;53.068;6.572;2024-03-02T07:26:28;7.10;99.90
54832;DHT22;40730;53.068;6.572;2024-03-02T07:28:55;7.10;99.90
54832;DHT22;40730;53.068;6.572;2024-03-02T07:31:21;7.30;99.90
54832;DHT22;40730;53.068;6.572;2024-03-02T07:33:46;7.30;99.90
54832;DHT22;40730;53.068;6.572;2024-03-02T07:36:12;7.50;99.90
54832;DHT22;40730;53.068;6.572;2024-03-02T07:38:38;7.60;99.90
54832;DHT22;40730;53.068;6.572;2024-03-02T07:41:03;7.70;99.90
54832;DHT22;40730;53.068;6.572;2024-03-02T07:43:30;7.80;99.90
54832;DHT22;40730;53.068;6.572;2024-03-02T07:45:57;7.90;99.90
54832;DHT22;40730;53.068;6.572;2024-03-02T07:48:23;8.00;99.90
54832;DHT22;40730;53.068;6.572;2024-03-02T07:50:48;8.10;99.90
54832;DHT22;40730;53.068;6.572;2024-03-02T07:53:14;8.20;99.90
54832;DHT22;40730;53.068;6.572;2024-03-02T07:55:40;8.30;99.90
54832;DHT22;40730;53.068;6.572;2024-03-02T07:58:06;8.40;99.90
54832;DHT22;40730;53.068;6.572;2024-03-02T08:00:32;8.50;99.90
54832;DHT22;40730;53.068;6.572;2024-03-02T08:02:58;8.60;99.90
54832;DHT22;40730;53.068;6.572;2024-03-02T08:05:23;8.70;99.90
54832;DHT22;40730;53.068;6.572;2024-03-02T08:07:49;8.80;99.90
54832;DHT22;40730;53.068;6.572;2024-03-02T08:10:18;8.90;99.90
54832;DHT22;40730;53.068;6.572;2024-03-02T08:12:44;9.00;99.90
54832;DHT22;40730;53.068;6.572;2024-03-02T08:15:09;9.10;99.90
54832;DHT22;40730;53.068;6.572;2024-03-02T08:17:35;9.20;99.90
54832;DHT22;40730;53.068;6.572;2024-03-02T08:20:01;9.30;99.90
54832;DHT22;40730;53.068;6.572;2024-03-02T08:22:27;9.40;99.90
54832;DHT22;40730;53.068;6.572;2024-03-02T08:24:53;9.50;99.90
54832;DHT22;40730;53.068;6.572;2024-03-02T08:27:19;9.70;99.90
54832;DHT22;40730;53.068;6.572;2024-03-02T08:29:45;9.80;99.90
54832;DHT22;40730;53.068;6.572;2024-03-02T08:32:13;9.90;99.90
54832;DHT22;40730;53.068;6.572;2024-03-02T08:34:40;10.20;99.90
54832;DHT22;40730;53.068;6.572;2024-03-02T08:37:05;10.30;99.90
54832;DHT22;40730;53.068;6.572;2024-03-02T08:39:31;10.30;99.90
54832;DHT22;40730;53.068;6.572;2024-03-02T08:41:57;10.50;99.90
54832;DHT22;40730;53.068;6.572;2024-03-02T08:44:22;10.50;99.90
54832;DHT22;40730;53.068;6.572;2024-03-02T08:46:48;10.70;99.90
54832;DHT22;40730;53.068;6.572;2024-03-02T08:49:14;10.80;99.90
54832;DHT22;40730;53.068;6.572;2024-03-02T08:51:39;10.90;99.90
54832;DHT22;40730;53.068;6.572;2024-03-02T08:54:05;11.00;99.90
54832;DHT22;40730;53.068;6.572;2024-03-02T08:56:31;11.00;99.90
54832;DHT22;40730;53.068;6.572;2024-03-02T08:58:57;11.00;99.90
54832;DHT22;40730;53.068;6.572;2024-03-02T09:01:22;11.00;99.90
54832;DHT22;40730;53.068;6.572;2024-03-02T09:03:48;11.00;99.90
54832;DHT22;40730;53.068;6.572;2024-03-02T09:06:17;10.90;99.90
54832;DHT22;40730;53.068;6.572;2024-03-02T09:08:43;10.80;99.90
54832;DHT22;40730;53.068;6.572;2024-03-02T09:11:10;10.70;99.90
54832;DHT22;40730;53.068;6.572;2024-03-02T09:13:36;10.60;99.90
54832;DHT22;40730;53.068;6.572;2024-03-02T09:16:03;10.60;99.90
54832;DHT22;40730;53.068;6.572;2024-03-02T09:18:29;10.60;99.90
54832;DHT22;40730;53.068;6.572;2024-03-02T09:20:55;10.60;99.90
54832;DHT22;40730;53.068;6.572;2024-03-02T09:23:21;10.70;99.90
54832;DHT22;40730;53.068;6.572;2024-03-02T09:25:46;10.90;99.90
54832;DHT22;40730;53.068;6.572;2024-03-02T09:28:12;10.90;99.90
54832;DHT22;40730;53.068;6.572;2024-03-02T09:30:38;10.90;99.90
54832;DHT22;40730;53.068;6.572;2024-03-02T09:33:04;10.90;99.90
54832;DHT22;40730;53.068;6.572;2024-03-02T09:35:29;11.00;99.90
54832;DHT22;40730;53.068;6.572;2024-03-02T09:37:55;11.10;99.90
54832;DHT22;40730;53.068;6.572;2024-03-02T09:40:22;11.30;99.90
54832;DHT22;40730;53.068;6.572;2024-03-02T09:42:48;11.50;99.90
54832;DHT22;40730;53.068;6.572;2024-03-02T09:45:23;11.60;99.90
54832;DHT22;40730;53.068;6.572;2024-03-02T09:47:49;11.50;99.90
54832;DHT22;40730;53.068;6.572;2024-03-02T09:50:15;11.40;99.90
54832;DHT22;40730;53.068;6.572;2024-03-02T09:52:42;11.30;99.90
54832;DHT22;40730;53.068;6.572;2024-03-02T09:55:08;11.20;99.90
54832;DHT22;40730;53.068;6.572;2024-03-02T09:57:34;11.20;99.90
54832;DHT22;40730;53.068;6.572;2024-03-02T09:59:59;11.10;99.90
54832;DHT22;40730;53.068;6.572;2024-03-02T10:02:26;11.10;99.90
54832;DHT22;40730;53.068;6.572;2024-03-02T10:04:51;10.90;99.90
54832;DHT22;40730;53.068;6.572;2024-03-02T10:07:18;10.90;99.90
54832;DHT22;40730;53.068;6.572;2024-03-02T10:09:48;10.80;99.90
54832;DHT22;40730;53.068;6.572;2024-03-02T10:12:16;10.80;99.90
54832;DHT22;40730;53.068;6.572;2024-03-02T10:14:42;10.80;99.90
54832;DHT22;40730;53.068;6.572;2024-03-02T10:17:09;10.90;99.90
54832;DHT22;40730;53.068;6.572;2024-03-02T10:19:36;11.00;99.90
54832;DHT22;40730;53.068;6.572;2024-03-02T10:22:07;11.20;99.90
54832;DHT22;40730;53.068;6.572;2024-03-02T10:24:41;11.20;99.90
54832;DHT22;40730;53.068;6.572;2024-03-02T10:27:11;11.20;99.90
54832;DHT22;40730;53.068;6.572;2024-03-02T10:29:40;11.20;99.90
54832;DHT22;40730;53.068;6.572;2024-03-02T10:32:09;11.30;99.90
54832;DHT22;40730;53.068;6.572;2024-03-02T10:34:35;11.30;99.90
54832;DHT22;40730;53.068;6.572;2024-03-02T10:37:01;11.30;99.90
54832;DHT22;40730;53.068;6.572;2024-03-02T10:39:28;11.20;99.90
54832;DHT22;40730;53.068;6.572;2024-03-02T10:41:55;11.20;99.90
54832;DHT22;40730;53.068;6.572;2024-03-02T10:44:22;11.40;99.90
54832;DHT22;40730;53.068;6.572;2024-03-02T10:46:49;11.70;99.90
54832;DHT22;40730;53.068;6.572;2024-03-02T10:49:16;11.90;99.90
54832;DHT22;40730;53.068;6.572;2024-03-02T10:51:43;12.00;99.90
54832;DHT22;40730;53.068;6.572;2024-03-02T10:54:08;12.10;99.90
54832;DHT22;40730;53.068;6.572;2024-03-02T10:56:40;12.50;99.90
54832;DHT22;40730;53.068;6.572;2024-03-02T11:01:50;13.40;99.90
54832;DHT22;40730;53.068;6.572;2024-03-02T11:04:19;13.80;99.90
54832;DHT22;40730;53.068;6.572;2024-03-02T11:06:49;14.00;99.90
54832;DHT22;40730;53.068;6.572;2024-03-02T11:09:19;14.30;99.90
54832;DHT22;40730;53.068;6.572;2024-03-02T11:12:03;14.60;99.90
54832;DHT22;40730;53.068;6.572;2024-03-02T11:14:31;14.70;99.90
54832;DHT22;40730;53.068;6.572;2024-03-02T11:17:01;14.30;99.90
54832;DHT22;40730;53.068;6.572;2024-03-02T11:19:29;14.00;99.90
54832;DHT22;40730;53.068;6.572;2024-03-02T11:21:56;13.80;99.90
54832;DHT22;40730;53.068;6.572;2024-03-02T11:26:48;13.10;99.90
54832;DHT22;40730;53.068;6.572;2024-03-02T11:32:05;12.90;99.90
54832;DHT22;40730;53.068;6.572;2024-03-02T11:34:33;12.90;99.90
54832;DHT22;40730;53.068;6.572;2024-03-02T11:37:00;12.80;99.90
54832;DHT22;40730;53.068;6.572;2024-03-02T11:39:30;12.80;99.90
54832;DHT22;40730;53.068;6.572;2024-03-02T11:41:56;13.40;99.90
54832;DHT22;40730;53.068;6.572;2024-03-02T11:44:29;13.90;99.90
54832;DHT22;40730;53.068;6.572;2024-03-02T11:46:59;14.30;99.90
54832;DHT22;40730;53.068;6.572;2024-03-02T11:49:40;14.50;99.90
54832;DHT22;40730;53.068;6.572;2024-03-02T11:52:09;14.90;99.90
54832;DHT22;40730;53.068;6.572;2024-03-02T11:54:39;15.30;99.90
54832;DHT22;40730;53.068;6.572;2024-03-02T11:57:07;15.70;99.90
54832;DHT22;40730;53.068;6.572;2024-03-02T11:59:35;16.10;98.20
54832;DHT22;40730;53.068;6.572;2024-03-02T12:02:01;16.10;97.00
54832;DHT22;40730;53.068;6.572;2024-03-02T12:04:29;15.90;96.60
54832;DHT22;40730;53.068;6.572;2024-03-02T12:06:59;15.60;96.80
54832;DHT22;40730;53.068;6.572;2024-03-02T12:09:28;15.30;96.90
54832;DHT22;40730;53.068;6.572;2024-03-02T12:12:08;15.10;97.80
54832;DHT22;40730;53.068;6.572;2024-03-02T12:14:36;15.00;97.70
54832;DHT22;40730;53.068;6.572;2024-03-02T12:17:03;14.90;97.90
54832;DHT22;40730;53.068;6.572;2024-03-02T12:19:29;14.70;97.80
54832;DHT22;40730;53.068;6.572;2024-03-02T12:21:56;14.50;97.90
54832;DHT22;40730;53.068;6.572;2024-03-02T12:24:22;14.20;97.70
54832;DHT22;40730;53.068;6.572;2024-03-02T12:26:49;14.20;97.90
54832;DHT22;40730;53.068;6.572;2024-03-02T12:29:15;14.50;97.40
54832;DHT22;40730;53.068;6.572;2024-03-02T12:31:42;14.90;97.60
54832;DHT22;40730;53.068;6.572;2024-03-02T12:34:15;15.40;96.90
54832;DHT22;40730;53.068;6.572;2024-03-02T12:36:41;15.60;95.70
54832;DHT22;40730;53.068;6.572;2024-03-02T12:39:08;15.70;95.70
54832;DHT22;40730;53.068;6.572;2024-03-02T12:41:36;15.80;95.20
54832;DHT22;40730;53.068;6.572;2024-03-02T12:44:03;16.00;95.80
54832;DHT22;40730;53.068;6.572;2024-03-02T12:46:29;16.30;95.90
54832;DHT22;40730;53.068;6.572;2024-03-02T12:48:55;16.80;95.30
54832;DHT22;40730;53.068;6.572;2024-03-02T12:51:21;17.30;95.50
54832;DHT22;40730;53.068;6.572;2024-03-02T12:53:57;17.60;94.70
54832;DHT22;40730;53.068;6.572;2024-03-02T12:56:23;17.60;94.30
54832;DHT22;40730;53.068;6.572;2024-03-02T12:58:54;17.60;94.30
54832;DHT22;40730;53.068;6.572;2024-03-02T13:01:19;17.80;93.90
54832;DHT22;40730;53.068;6.572;2024-03-02T13:03:45;17.70;93.10
54832;DHT22;40730;53.068;6.572;2024-03-02T13:06:13;17.50;92.50
54832;DHT22;40730;53.068;6.572;2024-03-02T13:08:39;17.40;92.10
54832;DHT22;40730;53.068;6.572;2024-03-02T13:11:04;17.50;92.90
54832;DHT22;40730;53.068;6.572;2024-03-02T13:13:32;17.30;91.60
54832;DHT22;40730;53.068;6.572;2024-03-02T13:15:58;17.10;91.90
54832;DHT22;40730;53.068;6.572;2024-03-02T13:18:24;17.20;93.40
54832;DHT22;40730;53.068;6.572;2024-03-02T13:20:50;17.40;93.40
54832;DHT22;40730;53.068;6.572;2024-03-02T13:23:16;17.60;93.30
54832;DHT22;40730;53.068;6.572;2024-03-02T13:25:42;17.70;92.90
54832;DHT22;40730;53.068;6.572;2024-03-02T13:28:08;17.80;92.70
54832;DHT22;40730;53.068;6.572;2024-03-02T13:30:34;17.90;92.80
54832;DHT22;40730;53.068;6.572;2024-03-02T13:33:02;18.00;92.00
54832;DHT22;40730;53.068;6.572;2024-03-02T13:35:28;18.00;92.40
54832;DHT22;40730;53.068;6.572;2024-03-02T13:37:54;18.20;92.30
54832;DHT22;40730;53.068;6.572;2024-03-02T13:40:19;18.30;91.90
54832;DHT22;40730;53.068;6.572;2024-03-02T13:42:46;18.10;91.40
54832;DHT22;40730;53.068;6.572;2024-03-02T13:45:15;17.80;91.70
54832;DHT22;40730;53.068;6.572;2024-03-02T13:47:41;17.50;91.10
54832;DHT22;40730;53.068;6.572;2024-03-02T13:50:07;17.10;91.30
54832;DHT22;40730;53.068;6.572;2024-03-02T13:52:33;16.60;91.60
54832;DHT22;40730;53.068;6.572;2024-03-02T13:54:58;16.30;92.00
54832;DHT22;40730;53.068;6.572;2024-03-02T13:57:24;16.10;92.30
54832;DHT22;40730;53.068;6.572;2024-03-02T13:59:50;16.00;92.10
54832;DHT22;40730;53.068;6.572;2024-03-02T14:02:17;15.60;92.00
54832;DHT22;40730;53.068;6.572;2024-03-02T14:04:42;15.30;92.30
54832;DHT22;40730;53.068;6.572;2024-03-02T14:07:08;15.20;92.50
54832;DHT22;40730;53.068;6.572;2024-03-02T14:09:34;15.30;92.50
54832;DHT22;40730;53.068;6.572;2024-03-02T14:12:00;15.30;92.30
54832;DHT22;40730;53.068;6.572;2024-03-02T14:14:28;15.20;92.20
54832;DHT22;40730;53.068;6.572;2024-03-02T14:16:57;15.00;91.90
54832;DHT22;40730;53.068;6.572;2024-03-02T14:19:29;14.60;92.40
54832;DHT22;40730;53.068;6.572;2024-03-02T14:21:54;14.30;92.70
54832;DHT22;40730;53.068;6.572;2024-03-02T14:24:21;14.30;93.00
54832;DHT22;40730;53.068;6.572;2024-03-02T14:26:51;14.10;93.00
54832;DHT22;40730;53.068;6.572;2024-03-02T14:29:17;14.10;93.20
54832;DHT22;40730;53.068;6.572;2024-03-02T14:31:43;14.30;93.40
54832;DHT22;40730;53.068;6.572;2024-03-02T14:34:09;14.50;93.00
54832;DHT22;40730;53.068;6.572;2024-03-02T14:36:35;14.80;93.00
54832;DHT22;40730;53.068;6.572;2024-03-02T14:39:00;14.90;93.40
54832;DHT22;40730;53.068;6.572;2024-03-02T14:41:26;15.00;92.80
54832;DHT22;40730;53.068;6.572;2024-03-02T14:43:52;15.10;92.90
54832;DHT22;40730;53.068;6.572;2024-03-02T14:46:18;15.00;92.70
54832;DHT22;40730;53.068;6.572;2024-03-02T14:48:45;14.70;92.70
54832;DHT22;40730;53.068;6.572;2024-03-02T14:51:11;14.40;93.00
54832;DHT22;40730;53.068;6.572;2024-03-02T14:53:37;14.30;93.40
54832;DHT22;40730;53.068;6.572;2024-03-02T14:56:04;14.30;93.80
54832;DHT22;40730;53.068;6.572;2024-03-02T14:58:30;14.10;94.20
54832;DHT22;40730;53.068;6.572;2024-03-02T15:00:55;14.10;94.50
54832;DHT22;40730;53.068;6.572;2024-03-02T15:03:21;14.20;94.50
54832;DHT22;40730;53.068;6.572;2024-03-02T15:05:47;14.10;94.20
54832;DHT22;40730;53.068;6.572;2024-03-02T15:08:14;14.10;94.40
54832;DHT22;40730;53.068;6.572;2024-03-02T15:10:39;14.00;94.30
54832;DHT22;40730;53.068;6.572;2024-03-02T15:13:07;13.90;94.80
54832;DHT22;40730;53.068;6.572;2024-03-02T15:15:33;13.80;95.30
54832;DHT22;40730;53.068;6.572;2024-03-02T15:17:59;13.60;95.50
54832;DHT22;40730;53.068;6.572;2024-03-02T15:20:24;13.30;95.90
54832;DHT22;40730;53.068;6.572;2024-03-02T15:22:50;13.20;96.40
54832;DHT22;40730;53.068;6.572;2024-03-02T15:25:15;13.10;97.00
54832;DHT22;40730;53.068;6.572;2024-03-02T15:27:42;13.00;97.30
54832;DHT22;40730;53.068;6.572;2024-03-02T15:30:08;13.00;97.80
54832;DHT22;40730;53.068;6.572;2024-03-02T15:32:34;13.10;97.90
54832;DHT22;40730;53.068;6.572;2024-03-02T15:35:00;13.10;98.10
54832;DHT22;40730;53.068;6.572;2024-03-02T15:37:25;13.10;98.00
54832;DHT22;40730;53.068;6.572;2024-03-02T15:39:51;12.90;98.20
54832;DHT22;40730;53.068;6.572;2024-03-02T15:42:17;12.70;98.50
54832;DHT22;40730;53.068;6.572;2024-03-02T15:44:43;12.60;98.80
54832;DHT22;40730;53.068;6.572;2024-03-02T15:47:09;12.50;99.30
54832;DHT22;40730;53.068;6.572;2024-03-02T15:49:34;12.40;99.20